Dauphin Island, AL (36528)

1:03 PM CST on February 08, 2016 (GMT -0600)
NOS_NWLON | | Change Station
CLOSE
Current Station
Personal Weather Station
Location: Dauphin Island, AL
Elevation: 0 ft
Nearby Weather Stations
Active Advisory: Wind Advisory

Elev 0 ft 30.25 °N, 88.07 °W | Updated 39 minutes ago

Clear
Clear
57 °F
Feels Like 57 °F
N
15
Wind Variable Wind from West
Gusts 26.0 mph

Today
High -- | Low -- °F
--% Chance of Precip.
Yesterday
High -- | Low -- °F
Precip. -- in
Pressure 29.92 in
Visibility 10.0 miles
Clouds Clear
Dew Point Not available.
Humidity Not available.
Rainfall in
Snow Depth Not available.
6:38 AM 5:34 PM
New Moon, 0% visible
METAR KCQF 081855Z AUTO 29013G22KT 260V320 10SM CLR 15/00 A2992 RMK AO2
Pressure 29.92 in
Visibility 10.0 miles
Clouds Clear
Dew Point Not available.
Humidity Not available.
Rainfall in
Snow Depth Not available.
6:38 AM 5:34 PM
New Moon, 0% visible
METAR KCQF 081855Z AUTO 29013G22KT 260V320 10SM CLR 15/00 A2992 RMK AO2

10-Day Weather Forecast

Almanac

Astronomy

Feb. 08, 2016 Rise Set
Actual Time
Civil Twilight
Nautical Twilight
Astronomical Twilight
Moon
Length of Visible Light
Length of Day
Tomorrow will be .
, % of the Moon is Illuminated

Today's Extremes

State Highs State Lows

Community

WunderPhotos

Upload Photos

1,891,485 photos uploaded!

WunderBlog® & News

Nearby

Air Quality

  Air Quality AQ Index Pollutant
Not available.

Snow Depth

Station Depth Elevation

Earthquake Activity

City Distance Mag. Time & Date
Minimum magnitude displayed is 2.5.

Coastal Water Temperatures

Place Temperature

Stations

Nearby Weather Stations

Station Location Temp. Windchill Dew Point Humidity Wind Precip. Elev Updated Type
                   

Watches & Warnings

Wind Advisory
Issued: 6:27 AM CST Feb. 8, 2016 – National Weather Service

... Wind Advisory remains in effect from noon today to 6 am CST
Tuesday...

* timing... this afternoon through tonight.

* Winds... northwest and increasing to 25 to 30 mph with frequent
higher gusts in excess of 35 mph likely.

Precautionary/preparedness actions...

A Wind Advisory means that winds of 30 to 39 mph are expected.
Winds this strong can make driving difficult... especially for
high profile vehicles. Use extra caution.